Map

Track Data

SID SEASON NUMBER BASIN SUBBASIN NAME ISO_TIME NATURE LAT LON WMO_WIND WMO_PRES WMO_AGENCY TRACK_TYPE DIST2LAND LANDFALL IFLAG USA_AGENCY USA_ATCF_ID USA_LAT USA_LON USA_RECORD USA_STATUS USA_WIND USA_PRES USA_SSHS USA_R34_NE USA_R34_SE USA_R34_SW USA_R34_NW USA_R50_NE USA_R50_SE USA_R50_SW USA_R50_NW USA_R64_NE USA_R64_SE USA_R64_SW USA_R64_NW USA_POCI USA_ROCI USA_RMW USA_EYE TOKYO_LAT TOKYO_LON TOKYO_GRADE TOKYO_WIND TOKYO_PRES TOKYO_R50_DIR TOKYO_R50_LONG TOKYO_R50_SHORT TOKYO_R30_DIR TOKYO_R30_LONG TOKYO_R30_SHORT TOKYO_LAND CMA_LAT CMA_LON CMA_CAT CMA_WIND CMA_PRES HKO_LAT HKO_LON HKO_CAT HKO_WIND HKO_PRES NEWDELHI_LAT NEWDELHI_LON NEWDELHI_GRADE NEWDELHI_WIND NEWDELHI_PRES NEWDELHI_CI NEWDELHI_DP NEWDELHI_POCI REUNION_LAT REUNION_LON REUNION_TYPE REUNION_WIND REUNION_PRES REUNION_TNUM REUNION_CI REUNION_RMW REUNION_R34_NE REUNION_R34_SE REUNION_R34_SW REUNION_R34_NW REUNION_R50_NE REUNION_R50_SE REUNION_R50_SW REUNION_R50_NW REUNION_R64_NE REUNION_R64_SE REUNION_R64_SW REUNION_R64_NW BOM_LAT BOM_LON BOM_TYPE BOM_WIND BOM_PRES BOM_TNUM BOM_CI BOM_RMW BOM_R34_NE BOM_R34_SE BOM_R34_SW BOM_R34_NW BOM_R50_NE BOM_R50_SE BOM_R50_SW BOM_R50_NW BOM_R64_NE BOM_R64_SE BOM_R64_SW BOM_R64_NW BOM_ROCI BOM_POCI BOM_EYE BOM_POS_METHOD BOM_PRES_METHOD NADI_LAT NADI_LON NADI_CAT NADI_WIND NADI_PRES WELLINGTON_LAT WELLINGTON_LON WELLINGTON_WIND WELLINGTON_PRES DS824_LAT DS824_LON DS824_STAGE DS824_WIND DS824_PRES TD9636_LAT TD9636_LON TD9636_STAGE TD9636_WIND TD9636_PRES TD9635_LAT TD9635_LON TD9635_WIND TD9635_PRES TD9635_ROCI NEUMANN_LAT NEUMANN_LON NEUMANN_CLASS NEUMANN_WIND NEUMANN_PRES MLC_LAT MLC_LON MLC_CLASS MLC_WIND MLC_PRES USA_GUST BOM_GUST BOM_GUST_PER REUNION_GUST REUNION_GUST_PER USA_SEAHGT USA_SEARAD_NE USA_SEARAD_SE USA_SEARAD_SW USA_SEARAD_NW STORM_SPEED STORM_DIR
1894052S14066 1894 10 SI MM NOT_NAMED 1894-02-21 06:00:00 NR -13.8000 66.4000 reunion main 1162 1123 _____O________ -1 -13.8000 66.4000 99 9.90000 7 233
1894052S14066 1894 10 SI MM NOT_NAMED 1894-02-21 09:00:00 NR -14.0164 66.1011 main 1123 1084 _____P________ -1 -14.0164 66.1011 99 7 233
1894052S14066 1894 10 SI MM NOT_NAMED 1894-02-21 12:00:00 NR -14.2334 65.8017 main 1084 1045 _____P________ -1 -14.2334 65.8017 99 7 233
1894052S14066 1894 10 SI MM NOT_NAMED 1894-02-21 15:00:00 NR -14.4519 65.5019 main 1038 1022 _____P________ -1 -14.4519 65.5019 99 5 227
1894052S14066 1894 10 SI MM NOT_NAMED 1894-02-21 18:00:00 NR -14.5783 65.4214 main 1022 992 _____P____O___ -1 -14.6729 65.2018 99 -14.2000 66.3000 7 5 222
1894052S14066 1894 10 SI MM NOT_NAMED 1894-02-21 21:00:00 NR -14.7950 65.1865 main 992 952 _____P____P___ -1 -14.8973 64.9015 99 -14.5903 65.7564 7 7 228
1894052S14066 1894 10 SI MM NOT_NAMED 1894-02-22 00:00:00 NR -15.0608 64.8703 main 946 898 _____P____P___ -1 -15.1260 64.6010 99 -14.9739 65.2294 7 9 229
1894052S14066 1894 10 SI MM NOT_NAMED 1894-02-22 03:00:00 NR -15.3527 64.5191 main 891 852 _____P____P___ -1 -15.3599 64.3005 99 -15.3455 64.7377 7 9 230
1894052S14066 1894 10 SI MM NOT_NAMED 1894-02-22 06:00:00 NR -15.6500 64.1500 reunion main 852 798 _____O____O___ -1 -15.6000 64.0000 99 9.90000 -15.7000 64.3000 7 9 229
1894052S14066 1894 10 SI MM NOT_NAMED 1894-02-22 09:00:00 NR -15.9414 63.8149 main 798 752 _____P____P___ -1 -15.8481 63.7001 99 -16.0348 63.9296 7 9 227
1894052S14066 1894 10 SI MM NOT_NAMED 1894-02-22 12:00:00 NR -16.2331 63.5103 main 752 706 _____P____P___ -1 -16.1094 63.4039 99 -16.3568 63.6166 7 8 223
1894052S14066 1894 10 SI MM NOT_NAMED 1894-02-22 15:00:00 NR -16.5328 63.2301 main 706 669 _____P____P___ -1 -16.3900 63.1149 99 -16.6755 63.3453 7 8 220
1894052S14066 1894 10 SI MM NOT_NAMED 1894-02-22 18:00:00 NR -16.8481 62.9683 main 669 624 _____P____O___ -1 -16.6961 62.8365 99 -17.0000 63.1000 7 8 218
1894052S14066 1894 10 SI MM NOT_NAMED 1894-02-22 21:00:00 NR -17.1680 62.7145 main 618 582 _____P____P___ -1 -17.0339 62.5724 99 -17.3020 62.8566 7 8 215
1894052S14066 1894 10 SI MM NOT_NAMED 1894-02-23 00:00:00 NR -17.5135 62.4798 main 582 542 _____P____P___ -1 -17.4097 62.3259 99 -17.6172 62.6337 7 9 211
1894052S14066 1894 10 SI MM NOT_NAMED 1894-02-23 03:00:00 NR -17.9017 62.2598 main 542 503 _____P____P___ -1 -17.8296 62.1006 99 -17.9739 62.4190 7 9 206
1894052S14066 1894 10 SI MM NOT_NAMED 1894-02-23 06:00:00 NR -18.3500 62.0500 reunion main 503 447 _____O____O___ -1 -18.3000 61.9000 99 9.90000 -18.4000 62.2000 7 11 203
1894052S14066 1894 10 SI MM NOT_NAMED 1894-02-23 09:00:00 NR -18.9100 61.8128 main 447 407 _____P____P___ -1 -18.9038 61.7079 99 -18.9162 61.9177 7 13 200
1894052S14066 1894 10 SI MM NOT_NAMED 1894-02-23 12:00:00 NR -19.5362 61.5861 main 407 375 _____P____P___ -1 -19.5694 61.5379 99 -19.5030 61.6342 7 14 197
1894052S14066 1894 10 SI MM NOT_NAMED 1894-02-23 15:00:00 NR -20.2054 61.3869 main 375 358 _____P____P___ -1 -20.2726 61.3903 99 -20.1382 61.3835 7 14 194
1894052S14066 1894 10 SI MM NOT_NAMED 1894-02-23 18:00:00 NR -20.8945 61.2326 main 360 360 _____P____O___ -1 -20.9890 61.2652 99 -20.8000 61.2000 7 14 190
1894052S14066 1894 10 SI MM NOT_NAMED 1894-02-23 21:00:00 NR -21.5823 61.1360 main 372 372 _____P____P___ -1 -21.6944 61.1632 99 -21.4703 61.1089 7 14 186
1894052S14066 1894 10 SI MM NOT_NAMED 1894-02-24 00:00:00 NR -22.2701 61.0892 main 405 405 _____P____P___ -1 -22.3642 61.0846 99 -22.1446 61.0954 7 14 183
1894052S14066 1894 10 SI MM NOT_NAMED 1894-02-24 03:00:00 NR -22.9233 61.0648 main 441 441 _____P____P___ -1 -22.9741 61.0300 99 -22.8217 61.1343 7 12 181
1894052S14066 1894 10 SI MM NOT_NAMED 1894-02-24 06:00:00 NR -23.5000 61.0400 reunion main 477 477 _____O____O___ -1 -23.5000 61.0000 99 9.90000 -23.5000 61.2000 7 10 184
1894052S14066 1894 10 SI MM NOT_NAMED 1894-02-24 09:00:00 NR -23.9239 60.9944 main 509 509 _____P________ -1 -23.9239 60.9944 99 7 8 0
1894052S14066 1894 10 SI MM NOT_NAMED 1894-02-24 12:00:00 NR -24.2531 61.0109 main 543 543 _____P________ -1 -24.2531 61.0109 99 7 6 176
1894052S14066 1894 10 SI MM NOT_NAMED 1894-02-24 15:00:00 NR -24.5013 61.0465 main 561 561 _____P________ -1 -24.5013 61.0465 99 7 4 169
1894052S14066 1894 10 SI MM NOT_NAMED 1894-02-24 18:00:00 NR -24.6820 61.0980 main 584 584 _____P________ -1 -24.6820 61.0980 99 3 162
1894052S14066 1894 10 SI MM NOT_NAMED 1894-02-24 21:00:00 NR -24.8087 61.1623 main 599 599 _____P________ -1 -24.8087 61.1623 99 2 150
1894052S14066 1894 10 SI MM NOT_NAMED 1894-02-25 00:00:00 NR -24.8950 61.2361 main 608 608 _____P________ -1 -24.8950 61.2361 99 2 136
1894052S14066 1894 10 SI MM NOT_NAMED 1894-02-25 03:00:00 NR -24.9542 61.3165 main 623 623 _____P________ -1 -24.9542 61.3165 99 2 125
1894052S14066 1894 10 SI MM NOT_NAMED 1894-02-25 06:00:00 NR -25.0000 61.4000 reunion main 629 _____O________ -1 -25.0000 61.4000 99 9.90000 2 121

About IBTrACS Database

This database is a web-friendly format of International Best Track Archive for Climate Stewardship (IBTrACS), a global best track data archive curated by NOAA dating back to 1842.

Updated: 2021-12-06